createdAt,value
2019-01-25T00:01:24.693Z,34.83
2019-01-25T00:03:54.225Z,40.43
2019-01-25T00:06:23.083Z,39.23
2019-01-25T00:08:52.393Z,41.63
2019-01-25T00:11:21.580Z,42.57
2019-01-25T00:13:50.675Z,34.87
2019-01-25T00:16:20.274Z,38.67
2019-01-25T00:18:50.031Z,43.60
2019-01-25T00:21:18.923Z,40.87
2019-01-25T00:23:47.926Z,40.63
2019-01-25T00:26:17.063Z,32.13
2019-01-25T00:28:46.371Z,39.97
2019-01-25T00:31:15.667Z,40.13
2019-01-25T00:33:44.819Z,39.93
2019-01-25T00:36:14.399Z,48.53
2019-01-25T00:38:43.739Z,39.40
2019-01-25T00:41:12.966Z,39.20
2019-01-25T00:43:42.711Z,40.33
2019-01-25T00:46:12.020Z,33.73
2019-01-25T00:48:40.827Z,40.10
2019-01-25T00:51:09.895Z,41.97
2019-01-25T00:53:38.863Z,28.20
2019-01-25T00:56:08.083Z,35.90
2019-01-25T00:58:36.957Z,36.60
2019-01-25T01:01:06.027Z,37.50
2019-01-25T01:03:35.057Z,35.50
2019-01-25T01:06:05.146Z,36.33
2019-01-25T01:08:34.043Z,38.40
2019-01-25T01:11:03.744Z,39.70
2019-01-25T01:13:33.364Z,35.47
2019-01-25T01:16:02.652Z,38.50
2019-01-25T01:18:31.683Z,36.07
2019-01-25T01:21:01.156Z,40.67
2019-01-25T01:23:30.146Z,31.80
2019-01-25T01:25:59.213Z,39.80
2019-01-25T01:28:28.006Z,29.50
2019-01-25T01:30:56.847Z,39.03
2019-01-25T01:33:26.121Z,32.23
2019-01-25T01:35:55.031Z,27.00
2019-01-25T01:38:24.055Z,31.37
2019-01-25T01:40:52.940Z,32.20
2019-01-25T01:43:21.995Z,36.17
2019-01-25T01:45:51.642Z,32.07
2019-01-25T01:48:20.895Z,31.97
2019-01-25T01:50:49.831Z,35.60
2019-01-25T01:53:18.757Z,34.67
2019-01-25T01:55:48.391Z,31.90
2019-01-25T01:58:17.703Z,30.67
2019-01-25T02:00:47.151Z,36.00
2019-01-25T02:03:15.943Z,36.67
2019-01-25T02:05:45.363Z,34.10
2019-01-25T02:08:14.680Z,32.97
2019-01-25T02:10:44.585Z,40.30
2019-01-25T02:13:13.787Z,35.53
2019-01-25T02:15:43.403Z,34.93
2019-01-25T02:18:12.623Z,39.43
2019-01-25T02:20:41.795Z,34.57
2019-01-25T02:23:11.012Z,42.97
2019-01-25T02:25:40.855Z,37.80
2019-01-25T02:28:10.006Z,38.87
2019-01-25T02:30:38.788Z,36.00
2019-01-25T02:33:09.005Z,32.43
2019-01-25T02:35:38.414Z,33.27
2019-01-25T02:38:07.964Z,37.70
2019-01-25T02:40:39.150Z,42.17
2019-01-25T02:43:07.979Z,35.57
2019-01-25T02:45:37.684Z,27.23
2019-01-25T02:48:07.147Z,32.00
2019-01-25T02:50:36.612Z,36.90
2019-01-25T02:53:05.563Z,38.63
2019-01-25T02:55:35.358Z,31.87
2019-01-25T02:58:04.707Z,40.47
2019-01-25T03:00:33.691Z,33.50
2019-01-25T03:03:02.600Z,37.77
2019-01-25T03:05:32.269Z,36.20
2019-01-25T03:08:01.452Z,40.93
2019-01-25T03:10:30.452Z,29.33
2019-01-25T03:12:59.755Z,44.00
2019-01-25T03:15:28.829Z,40.10
2019-01-25T03:17:58.240Z,28.50
2019-01-25T03:20:27.413Z,39.00
2019-01-25T03:22:56.653Z,34.77
2019-01-25T03:25:27.322Z,28.50
2019-01-25T03:27:56.585Z,37.40
2019-01-25T03:30:26.777Z,30.10
2019-01-25T03:32:56.205Z,31.10
2019-01-25T03:35:26.725Z,38.80
2019-01-25T03:37:55.985Z,38.07
2019-01-25T03:40:27.067Z,36.57
2019-01-25T03:42:56.164Z,41.80
2019-01-25T03:45:26.091Z,40.30
2019-01-25T03:47:55.627Z,30.77
2019-01-25T03:50:27.191Z,35.20
2019-01-25T03:52:56.962Z,32.30
2019-01-25T03:55:26.267Z,45.43
2019-01-25T03:57:55.352Z,37.73
2019-01-25T04:00:26.645Z,40.90
2019-01-25T04:02:55.716Z,33.77
2019-01-25T04:05:24.650Z,41.97
2019-01-25T04:07:53.656Z,37.53
2019-01-25T04:10:24.474Z,44.80
2019-01-25T04:12:54.023Z,32.30
2019-01-25T04:15:25.440Z,24.57
2019-01-25T04:17:54.869Z,34.70
2019-01-25T04:20:24.485Z,41.30
2019-01-25T04:22:54.126Z,32.13
2019-01-25T04:25:24.525Z,42.97
2019-01-25T04:27:53.853Z,40.93
2019-01-25T04:30:27.936Z,34.33
2019-01-25T04:32:57.229Z,40.63
2019-01-25T04:35:26.843Z,35.60
2019-01-25T04:37:56.151Z,38.17
2019-01-25T04:40:25.544Z,36.40
2019-01-25T04:42:55.632Z,36.23
2019-01-25T04:45:24.735Z,32.80
2019-01-25T04:47:54.428Z,41.90
2019-01-25T04:50:25.185Z,40.30
2019-01-25T04:52:55.140Z,34.13
2019-01-25T04:55:26.841Z,43.07
2019-01-25T04:58:00.849Z,37.43
2019-01-25T05:00:30.388Z,40.27
2019-01-25T05:03:00.483Z,35.70
2019-01-25T05:05:30.213Z,40.13
2019-01-25T05:08:19.794Z,39.63
2019-01-25T05:10:49.847Z,39.57
2019-01-25T05:13:18.849Z,45.37
2019-01-25T05:15:48.308Z,37.57
2019-01-25T05:18:17.607Z,39.90
2019-01-25T05:20:46.585Z,27.20
2019-01-25T05:23:15.897Z,37.43
2019-01-25T05:25:45.233Z,35.37
2019-01-25T05:28:18.804Z,41.17
2019-01-25T05:31:01.796Z,36.50
2019-01-25T05:33:31.335Z,32.20
2019-01-25T05:36:00.352Z,39.10
2019-01-25T05:38:30.248Z,36.77
2019-01-25T05:40:59.435Z,34.00
2019-01-25T05:43:32.004Z,39.00
2019-01-25T05:46:01.507Z,41.47
2019-01-25T05:48:31.118Z,33.27
2019-01-25T05:51:04.703Z,26.60
2019-01-25T05:53:35.350Z,31.40
2019-01-25T05:56:05.056Z,36.23
2019-01-25T05:58:34.239Z,38.93
2019-01-25T06:01:03.219Z,37.73
2019-01-25T06:03:32.752Z,33.10
2019-01-25T06:06:06.769Z,35.90
2019-01-25T06:08:43.556Z,38.03
2019-01-25T06:11:08.643Z,33.83
2019-01-25T06:13:38.212Z,35.07
2019-01-25T06:16:10.213Z,35.03
2019-01-25T06:18:39.619Z,32.37
2019-01-25T06:21:08.579Z,36.80
2019-01-25T06:23:38.519Z,31.67
2019-01-25T06:26:09.059Z,31.87
2019-01-25T06:28:37.983Z,38.23
2019-01-25T06:31:07.352Z,32.33
2019-01-25T06:33:36.745Z,35.27
2019-01-25T06:36:07.219Z,28.33
2019-01-25T06:38:37.157Z,32.73
2019-01-25T06:41:06.868Z,38.73
2019-01-25T06:43:36.219Z,34.30
2019-01-25T06:46:05.599Z,36.43
2019-01-25T06:48:34.800Z,29.77
2019-01-25T06:51:04.512Z,36.10
2019-01-25T06:53:33.444Z,30.90
2019-01-25T06:56:02.491Z,33.13
2019-01-25T06:58:46.640Z,32.43
2019-01-25T07:01:32.328Z,30.37
2019-01-25T07:04:05.282Z,33.87
2019-01-25T07:06:35.213Z,38.60
2019-01-25T07:09:07.805Z,38.57
2019-01-25T07:11:42.088Z,32.70
2019-01-25T07:14:07.732Z,32.03
2019-01-25T07:16:37.046Z,30.47
2019-01-25T07:19:05.908Z,29.10
2019-01-25T07:21:35.021Z,31.73
2019-01-25T07:24:04.920Z,39.00
2019-01-25T07:26:34.244Z,39.50
2019-01-25T07:29:04.585Z,33.57
2019-01-25T07:31:33.660Z,26.53
2019-01-25T07:34:03.191Z,28.00
2019-01-25T07:36:33.276Z,35.87
2019-01-25T07:39:08.748Z,39.73
2019-01-25T07:41:38.253Z,24.30
2019-01-25T07:44:07.832Z,34.13
2019-01-25T07:46:37.055Z,31.47
2019-01-25T07:49:06.475Z,32.10
2019-01-25T07:51:35.739Z,32.83
2019-01-25T07:54:04.711Z,34.13
2019-01-25T07:56:33.981Z,29.00
2019-01-25T07:59:03.655Z,26.90
2019-01-25T08:01:33.369Z,28.93
2019-01-25T08:04:03.880Z,29.47
2019-01-25T08:06:33.343Z,30.30
2019-01-25T08:09:02.477Z,37.47
2019-01-25T08:11:31.284Z,32.40
2019-01-25T08:14:06.708Z,28.00
2019-01-25T08:16:35.966Z,32.30
2019-01-25T08:19:07.170Z,28.03
2019-01-25T08:21:36.183Z,28.57
2019-01-25T08:24:05.703Z,32.87
2019-01-25T08:26:34.708Z,35.70
2019-01-25T08:29:04.864Z,33.30
2019-01-25T08:31:34.419Z,25.60
2019-01-25T08:34:04.625Z,31.30
2019-01-25T08:36:34.554Z,20.17
2019-01-25T08:39:05.672Z,32.77
2019-01-25T08:41:34.844Z,28.70
2019-01-25T08:44:04.100Z,27.30
2019-01-25T08:46:33.056Z,23.63
2019-01-25T08:49:02.556Z,40.60
2019-01-25T08:51:31.552Z,38.37
2019-01-25T08:54:01.309Z,35.93
2019-01-25T08:56:30.773Z,37.30
2019-01-25T08:58:59.952Z,33.30
2019-01-25T09:01:29.228Z,26.33
2019-01-25T09:03:58.111Z,30.63
2019-01-25T09:06:27.128Z,48.40
2019-01-25T09:08:56.004Z,34.20
2019-01-25T09:11:25.216Z,36.30
2019-01-25T09:13:54.665Z,28.67
2019-01-25T09:16:23.827Z,33.37
2019-01-25T09:18:52.835Z,34.00
2019-01-25T09:21:22.128Z,31.13
2019-01-25T09:23:51.513Z,33.37
2019-01-25T09:26:21.189Z,32.10
2019-01-25T09:28:50.423Z,43.47
2019-01-25T09:31:19.924Z,36.33
2019-01-25T09:33:48.907Z,36.63
2019-01-25T09:36:18.120Z,32.50
2019-01-25T09:38:47.620Z,31.43
2019-01-25T09:41:17.519Z,30.77
2019-01-25T09:43:46.733Z,32.60
2019-01-25T09:46:16.031Z,39.50
2019-01-25T09:48:44.941Z,39.30
2019-01-25T09:51:14.133Z,29.73
2019-01-25T09:53:43.420Z,29.87
2019-01-25T09:56:12.291Z,33.83
2019-01-25T09:58:44.464Z,29.27
2019-01-25T10:01:14.765Z,33.10
2019-01-25T10:03:43.727Z,37.00
2019-01-25T10:06:13.055Z,36.00
2019-01-25T10:08:42.862Z,31.63
2019-01-25T10:11:12.045Z,35.97
2019-01-25T10:13:41.219Z,43.33
2019-01-25T10:16:10.568Z,29.87
2019-01-25T10:18:39.803Z,33.60
2019-01-25T10:21:08.731Z,40.37
2019-01-25T10:23:39.299Z,36.97
2019-01-25T10:26:09.032Z,44.17
2019-01-25T10:28:38.234Z,38.77
2019-01-25T10:31:07.096Z,39.63
2019-01-25T10:33:36.154Z,39.33
2019-01-25T10:36:05.320Z,43.53
2019-01-25T10:38:34.495Z,39.73
2019-01-25T10:41:04.114Z,43.80
2019-01-25T10:43:33.619Z,44.47
2019-01-25T10:46:02.555Z,38.47
2019-01-25T10:48:32.117Z,45.83
2019-01-25T10:51:01.309Z,47.50
2019-01-25T10:53:30.291Z,39.83
2019-01-25T10:55:59.100Z,36.70
2019-01-25T10:58:28.059Z,38.73
2019-01-25T11:00:57.288Z,33.13
2019-01-25T11:03:26.251Z,36.80
2019-01-25T11:05:55.691Z,38.10
2019-01-25T11:08:25.184Z,39.40
2019-01-25T11:10:54.319Z,38.63
2019-01-25T11:13:23.381Z,38.73
2019-01-25T11:15:52.295Z,44.43
2019-01-25T11:18:21.579Z,39.63
2019-01-25T11:20:50.599Z,43.13
2019-01-25T11:23:20.228Z,55.80
2019-01-25T11:25:49.195Z,47.33
2019-01-25T11:28:18.011Z,35.60
2019-01-25T11:30:47.298Z,33.53
2019-01-25T11:33:16.554Z,39.97
2019-01-25T11:35:46.319Z,43.37
2019-01-25T11:38:15.359Z,36.37
2019-01-25T11:40:45.334Z,49.70
2019-01-25T11:43:14.883Z,37.53
2019-01-25T11:45:43.925Z,42.20
2019-01-25T11:48:14.604Z,36.37
2019-01-25T11:50:43.905Z,34.60
2019-01-25T11:53:13.144Z,31.43
2019-01-25T11:55:42.816Z,38.37
2019-01-25T11:58:12.011Z,32.43
2019-01-25T12:01:00.476Z,35.07
2019-01-25T12:03:29.680Z,34.27
2019-01-25T12:05:58.629Z,32.87
2019-01-25T12:08:27.627Z,34.07
2019-01-25T12:10:57.440Z,33.03
2019-01-25T12:13:27.404Z,35.77
2019-01-25T12:15:56.667Z,27.17
2019-01-25T12:18:26.376Z,29.77
2019-01-25T12:20:55.555Z,34.27
2019-01-25T12:23:24.773Z,28.23
2019-01-25T12:25:54.004Z,33.73
2019-01-25T12:28:22.793Z,33.33
2019-01-25T12:30:51.783Z,25.87
2019-01-25T12:33:21.157Z,33.67
2019-01-25T12:35:50.380Z,30.43
2019-01-25T12:38:19.170Z,35.63
2019-01-25T12:40:48.013Z,19.67
2019-01-25T12:43:23.902Z,26.90
2019-01-25T12:45:50.183Z,32.07
2019-01-25T12:48:19.366Z,26.97
2019-01-25T12:50:52.293Z,23.23
2019-01-25T12:53:22.890Z,31.47
2019-01-25T12:55:51.912Z,22.70
2019-01-25T12:58:21.787Z,24.13
2019-01-25T13:00:52.698Z,26.43
2019-01-25T13:03:21.999Z,30.67
2019-01-25T13:05:51.680Z,32.83
2019-01-25T13:08:20.880Z,33.87
2019-01-25T13:10:50.431Z,28.37
2019-01-25T13:13:19.331Z,26.37
2019-01-25T13:15:49.202Z,37.67
2019-01-25T13:18:18.220Z,29.20
2019-01-25T13:20:47.408Z,31.03
2019-01-25T13:23:16.576Z,30.47
2019-01-25T13:25:47.369Z,31.80
2019-01-25T13:28:16.563Z,30.67
2019-01-25T13:30:45.860Z,26.50
2019-01-25T13:33:15.864Z,31.60
2019-01-25T13:35:45.129Z,25.13
2019-01-25T13:38:14.113Z,33.67
2019-01-25T13:40:43.315Z,36.43
2019-01-25T13:43:13.520Z,34.60
2019-01-25T13:45:42.727Z,31.30
2019-01-25T13:48:12.039Z,29.87
2019-01-25T13:50:41.095Z,41.43
2019-01-25T13:53:10.031Z,37.20
2019-01-25T13:55:39.189Z,33.93
2019-01-25T13:58:08.079Z,32.87
2019-01-25T14:00:37.072Z,38.80
2019-01-25T14:03:07.159Z,35.73
2019-01-25T14:05:36.521Z,28.40
2019-01-25T14:08:05.472Z,28.40
2019-01-25T14:10:35.659Z,37.73
2019-01-25T14:13:05.163Z,38.23
2019-01-25T14:15:34.749Z,33.37
2019-01-25T14:18:05.068Z,34.30
2019-01-25T14:20:34.096Z,29.97
2019-01-25T14:23:04.523Z,36.83
2019-01-25T14:25:33.922Z,37.10
2019-01-25T14:28:02.915Z,31.17
2019-01-25T14:30:40.520Z,35.93
2019-01-25T14:33:09.883Z,33.67
2019-01-25T14:35:39.778Z,32.93
2019-01-25T14:38:10.289Z,31.37
2019-01-25T14:40:39.899Z,35.20
2019-01-25T14:43:09.129Z,33.43
2019-01-25T14:45:38.432Z,36.23
2019-01-25T14:48:08.139Z,30.50
2019-01-25T14:50:37.307Z,24.80
2019-01-25T14:53:07.603Z,30.60
2019-01-25T14:55:36.920Z,28.50
2019-01-25T14:58:06.832Z,31.70
2019-01-25T15:00:36.075Z,29.33
2019-01-25T15:03:05.684Z,30.73
2019-01-25T15:05:34.887Z,31.50
2019-01-25T15:08:03.768Z,30.40
2019-01-25T15:10:33.027Z,29.80
2019-01-25T15:13:05.855Z,30.07
2019-01-25T15:15:35.460Z,38.90
2019-01-25T15:18:05.275Z,29.87
2019-01-25T15:20:34.103Z,30.67
2019-01-25T15:23:03.259Z,36.63
2019-01-25T15:25:32.282Z,29.47
2019-01-25T15:28:03.625Z,28.57
2019-01-25T15:30:33.574Z,25.33
2019-01-25T15:33:03.232Z,22.83
2019-01-25T15:35:32.732Z,25.93
2019-01-25T15:38:02.778Z,17.40
2019-01-25T15:40:31.770Z,20.20
2019-01-25T15:43:02.809Z,22.13
2019-01-25T15:45:32.169Z,27.30
2019-01-25T15:48:03.943Z,21.80
2019-01-25T15:50:33.839Z,17.07
2019-01-25T15:53:03.139Z,17.53
2019-01-25T15:55:32.072Z,15.07
2019-01-25T15:58:01.345Z,16.97
2019-01-25T16:00:31.473Z,18.17
2019-01-25T16:03:00.903Z,16.03
2019-01-25T16:05:30.680Z,25.67
2019-01-25T16:07:59.983Z,17.83
2019-01-25T16:10:29.278Z,22.27
2019-01-25T16:12:58.189Z,21.43
2019-01-25T16:15:29.906Z,18.50
2019-01-25T16:17:59.245Z,19.73
2019-01-25T16:20:28.623Z,19.83
2019-01-25T16:22:58.567Z,18.13
2019-01-25T16:25:32.607Z,19.30
2019-01-25T16:28:02.810Z,18.17
2019-01-25T16:30:37.675Z,15.53
2019-01-25T16:33:07.464Z,23.83
2019-01-25T16:35:36.435Z,19.50
2019-01-25T16:38:06.497Z,20.10
2019-01-25T16:40:37.597Z,17.70
2019-01-25T16:43:08.743Z,24.17
2019-01-25T16:45:39.927Z,16.77
2019-01-25T16:48:09.381Z,16.70
2019-01-25T16:50:39.880Z,21.93
2019-01-25T16:53:11.588Z,17.03
2019-01-25T16:55:40.879Z,20.57
2019-01-25T16:58:09.858Z,16.90
2019-01-25T17:00:49.608Z,15.00
2019-01-25T17:03:19.091Z,23.57
2019-01-25T17:05:48.065Z,17.50
2019-01-25T17:08:17.064Z,11.07
2019-01-25T17:10:46.688Z,15.13
2019-01-25T17:13:15.506Z,14.67
2019-01-25T17:15:45.192Z,9.80
2019-01-25T17:18:14.683Z,10.57
2019-01-25T17:20:44.403Z,10.33
2019-01-25T17:23:13.491Z,10.70
2019-01-25T17:25:42.687Z,11.73
2019-01-25T17:28:11.836Z,13.20
2019-01-25T17:30:42.845Z,10.80
2019-01-25T17:33:12.637Z,10.53
2019-01-25T17:35:41.947Z,11.67
2019-01-25T17:38:10.920Z,12.90
2019-01-25T17:40:47.291Z,11.03
2019-01-25T17:43:16.697Z,15.37
2019-01-25T17:45:46.019Z,16.23
2019-01-25T17:48:15.003Z,15.27
2019-01-25T17:50:44.420Z,17.87
2019-01-25T17:53:13.287Z,18.50
2019-01-25T17:55:42.515Z,14.53
2019-01-25T17:58:11.924Z,16.17
2019-01-25T18:00:56.640Z,17.13
2019-01-25T18:03:25.618Z,18.77
2019-01-25T18:05:54.844Z,15.37
2019-01-25T18:08:24.063Z,14.97
2019-01-25T18:10:53.045Z,15.10
2019-01-25T18:13:22.244Z,19.90
2019-01-25T18:15:51.448Z,18.20
2019-01-25T18:18:20.367Z,21.73
2019-01-25T18:20:49.656Z,19.97
2019-01-25T18:23:18.631Z,19.67
2019-01-25T18:25:57.329Z,17.10
2019-01-25T18:28:30.524Z,20.97
2019-01-25T18:31:04.565Z,18.87
2019-01-25T18:33:33.735Z,20.00
2019-01-25T18:36:21.752Z,20.57
2019-01-25T18:38:50.976Z,17.47
2019-01-25T18:41:20.463Z,23.30
2019-01-25T18:43:50.283Z,22.80
2019-01-25T18:46:19.211Z,17.90
2019-01-25T18:48:48.532Z,20.33
2019-01-25T18:51:17.501Z,21.60
2019-01-25T18:53:46.768Z,21.60
2019-01-25T18:56:17.348Z,27.30
2019-01-25T18:58:46.443Z,20.53
2019-01-25T19:01:16.943Z,21.87
2019-01-25T19:03:46.420Z,25.27
2019-01-25T19:06:15.452Z,23.60
2019-01-25T19:08:44.612Z,20.80
2019-01-25T19:11:13.939Z,19.80
2019-01-25T19:13:43.109Z,19.47
2019-01-25T19:16:12.372Z,23.40
2019-01-25T19:18:41.137Z,22.80
2019-01-25T19:21:10.827Z,29.00
2019-01-25T19:23:40.093Z,27.40
2019-01-25T19:26:08.907Z,17.33
2019-01-25T19:28:38.075Z,24.67
2019-01-25T19:31:07.312Z,30.20
2019-01-25T19:33:36.296Z,21.67
2019-01-25T19:36:05.595Z,26.17
2019-01-25T19:38:35.112Z,24.77
2019-01-25T19:41:04.083Z,23.77
2019-01-25T19:43:33.481Z,19.13
2019-01-25T19:46:02.895Z,27.37
2019-01-25T19:48:32.330Z,24.53
2019-01-25T19:51:02.734Z,23.43
2019-01-25T19:53:32.227Z,21.00
2019-01-25T19:56:05.651Z,24.87
2019-01-25T19:58:34.666Z,23.53
2019-01-25T20:01:04.116Z,20.90
2019-01-25T20:03:32.997Z,26.83
2019-01-25T20:06:05.403Z,28.17
2019-01-25T20:08:34.804Z,26.27
2019-01-25T20:11:04.858Z,29.60
2019-01-25T20:13:34.227Z,36.07
2019-01-25T20:16:06.399Z,28.00
2019-01-25T20:18:35.270Z,33.30
2019-01-25T20:21:04.252Z,31.67
2019-01-25T20:23:33.564Z,28.20
2019-01-25T20:26:02.912Z,24.10
2019-01-25T20:28:32.026Z,29.37
2019-01-25T20:31:01.660Z,25.97
2019-01-25T20:33:31.267Z,18.93
2019-01-25T20:36:00.451Z,16.10
2019-01-25T20:38:29.907Z,21.93
2019-01-25T20:40:59.468Z,21.23
2019-01-25T20:43:28.665Z,21.13
2019-01-25T20:45:58.172Z,21.00
2019-01-25T20:48:27.369Z,18.70
2019-01-25T20:50:56.572Z,25.77
2019-01-25T20:53:25.547Z,17.20
2019-01-25T20:55:54.754Z,21.30
2019-01-25T20:58:24.014Z,16.50
2019-01-25T21:00:53.434Z,12.63
2019-01-25T21:03:23.167Z,10.50
2019-01-25T21:05:52.372Z,14.50
2019-01-25T21:08:22.896Z,16.13
2019-01-25T21:10:52.024Z,21.90
2019-01-25T21:13:20.927Z,13.77
2019-01-25T21:15:49.724Z,14.83
2019-01-25T21:18:18.612Z,13.53
2019-01-25T21:20:48.339Z,13.83
2019-01-25T21:23:17.756Z,15.97
2019-01-25T21:25:47.048Z,19.60
2019-01-25T21:28:16.581Z,16.20
2019-01-25T21:30:45.851Z,14.93
2019-01-25T21:33:14.811Z,14.37
2019-01-25T21:35:44.109Z,17.77
2019-01-25T21:38:13.097Z,16.30
2019-01-25T21:40:42.467Z,16.00
2019-01-25T21:43:11.388Z,19.03
2019-01-25T21:45:43.285Z,19.80
2019-01-25T21:48:14.119Z,13.80
2019-01-25T21:50:43.986Z,16.10
2019-01-25T21:53:13.148Z,15.70
2019-01-25T21:55:42.772Z,16.00
2019-01-25T21:58:12.084Z,14.57
2019-01-25T22:00:41.267Z,11.00
2019-01-25T22:03:10.503Z,12.77
2019-01-25T22:05:39.720Z,18.37
2019-01-25T22:08:09.210Z,11.20
2019-01-25T22:10:44.791Z,11.97
2019-01-25T22:13:13.751Z,10.50
2019-01-25T22:15:50.529Z,10.90
2019-01-25T22:18:14.051Z,10.27
2019-01-25T22:20:43.343Z,10.23
2019-01-25T22:23:12.759Z,11.87
2019-01-25T22:25:42.155Z,8.83
2019-01-25T22:28:11.768Z,9.60
2019-01-25T22:30:40.720Z,7.10
2019-01-25T22:33:10.155Z,7.03
2019-01-25T22:35:39.725Z,7.87
2019-01-25T22:38:09.404Z,9.60
2019-01-25T22:40:38.408Z,7.43
2019-01-25T22:43:07.394Z,10.60
2019-01-25T22:45:36.559Z,7.77
2019-01-25T22:48:05.932Z,10.60
2019-01-25T22:50:36.799Z,7.47
2019-01-25T22:53:06.536Z,8.80
2019-01-25T22:55:36.082Z,10.93
2019-01-25T22:58:05.347Z,8.07
2019-01-25T23:01:13.207Z,7.43
2019-01-25T23:04:00.472Z,7.57
2019-01-25T23:06:51.643Z,8.23
2019-01-25T23:09:27.128Z,10.63
2019-01-25T23:11:56.829Z,7.33
2019-01-25T23:14:25.802Z,8.47
2019-01-25T23:17:14.244Z,10.60
2019-01-25T23:19:43.755Z,10.57
2019-01-25T23:22:13.090Z,12.60
2019-01-25T23:24:42.792Z,10.07
2019-01-25T23:27:11.956Z,10.37
2019-01-25T23:29:41.160Z,8.13
2019-01-25T23:32:11.014Z,11.57
2019-01-25T23:34:40.059Z,8.40
2019-01-25T23:37:09.282Z,11.80
2019-01-25T23:39:38.967Z,5.07
2019-01-25T23:42:08.263Z,5.40
2019-01-25T23:44:37.368Z,12.83
2019-01-25T23:47:06.459Z,16.17
2019-01-25T23:49:35.860Z,10.00
2019-01-25T23:52:05.007Z,9.17
2019-01-25T23:54:33.872Z,8.13
2019-01-25T23:57:03.017Z,19.87
2019-01-25T23:59:31.935Z,10.47
